createdAt,value
2022-08-21T00:01:44.771Z,99105.63
2022-08-21T00:04:31.678Z,99092.75
2022-08-21T00:07:19.350Z,99114.25
2022-08-21T00:10:06.273Z,99110.00
2022-08-21T00:12:53.645Z,99116.16
2022-08-21T00:15:41.634Z,99115.34
2022-08-21T00:18:28.726Z,99122.31
2022-08-21T00:21:16.157Z,99104.19
2022-08-21T00:24:03.045Z,99077.59
2022-08-21T00:26:50.137Z,99109.38
2022-08-21T00:29:36.959Z,99081.97
2022-08-21T00:32:25.806Z,99090.56
2022-08-21T00:35:16.758Z,99067.38
2022-08-21T00:38:05.579Z,99100.91
2022-08-21T00:40:57.822Z,99104.41
2022-08-21T00:43:46.683Z,99075.31
2022-08-21T00:46:33.157Z,99101.94
2022-08-21T00:49:19.500Z,99064.22
2022-08-21T00:52:11.901Z,99072.03
2022-08-21T00:54:59.741Z,99095.19
2022-08-21T00:57:52.979Z,99091.81
2022-08-21T01:00:42.237Z,99090.16
2022-08-21T01:03:28.947Z,99060.94
2022-08-21T01:06:15.286Z,99039.50
2022-08-21T01:09:01.646Z,99095.50
2022-08-21T01:11:48.634Z,99078.16
2022-08-21T01:14:35.654Z,99093.66
2022-08-21T01:17:22.247Z,99070.63
2022-08-21T01:20:11.643Z,99087.97
2022-08-21T01:22:59.196Z,99070.03
2022-08-21T01:25:45.804Z,99062.25
2022-08-21T01:28:37.740Z,99098.41
2022-08-21T01:31:26.391Z,99102.81
2022-08-21T01:34:13.360Z,99104.59
2022-08-21T01:36:59.802Z,99100.31
2022-08-21T01:39:47.127Z,99060.75
2022-08-21T01:42:34.534Z,99086.59
2022-08-21T01:45:21.591Z,99046.25
2022-08-21T01:48:08.105Z,99062.66
2022-08-21T01:50:56.938Z,99041.25
2022-08-21T01:53:43.510Z,99055.94
2022-08-21T01:56:36.986Z,99099.06
2022-08-21T01:59:25.114Z,99090.44
2022-08-21T02:02:11.606Z,99068.97
2022-08-21T02:04:58.226Z,99059.56
2022-08-21T02:07:48.189Z,99080.25
2022-08-21T02:10:34.970Z,99081.97
2022-08-21T02:13:21.633Z,99020.09
2022-08-21T02:16:09.100Z,99043.34
2022-08-21T02:18:55.438Z,99045.16
2022-08-21T02:21:42.302Z,99079.53
2022-08-21T02:24:28.616Z,99070.09
2022-08-21T02:27:14.846Z,99002.22
2022-08-21T02:30:01.530Z,99065.06
2022-08-21T02:32:48.101Z,99066.72
2022-08-21T02:35:34.627Z,99076.13
2022-08-21T02:38:25.586Z,99059.84
2022-08-21T02:41:15.530Z,99075.41
2022-08-21T02:44:02.117Z,99054.81
2022-08-21T02:46:48.436Z,99036.75
2022-08-21T02:49:34.741Z,99074.66
2022-08-21T02:52:22.693Z,99030.88
2022-08-21T02:55:08.932Z,99066.16
2022-08-21T02:57:56.153Z,99034.25
2022-08-21T03:00:44.612Z,99048.91
2022-08-21T03:03:31.361Z,99046.41
2022-08-21T03:06:20.578Z,99077.41
2022-08-21T03:09:06.690Z,99073.97
2022-08-21T03:11:53.037Z,99037.88
2022-08-21T03:14:39.530Z,99044.72
2022-08-21T03:17:29.834Z,99063.63
2022-08-21T03:20:24.678Z,99055.16
2022-08-21T03:23:13.193Z,99038.75
2022-08-21T03:26:03.776Z,99059.44
2022-08-21T03:28:51.580Z,99047.44
2022-08-21T03:31:37.802Z,99050.91
2022-08-21T03:34:24.239Z,99031.13
2022-08-21T03:37:11.740Z,99045.81
2022-08-21T03:39:58.407Z,99074.25
2022-08-21T03:42:47.885Z,99044.97
2022-08-21T03:45:34.394Z,99034.69
2022-08-21T03:48:21.027Z,99072.56
2022-08-21T03:51:08.034Z,99051.97
2022-08-21T03:53:55.423Z,99034.78
2022-08-21T03:56:41.709Z,99048.59
2022-08-21T03:59:28.071Z,99043.44
2022-08-21T04:02:20.429Z,99041.72
2022-08-21T04:05:08.025Z,99050.34
2022-08-21T04:07:59.798Z,99073.69
2022-08-21T04:10:49.761Z,99099.56
2022-08-21T04:13:36.204Z,99089.28
2022-08-21T04:16:31.862Z,99112.59
2022-08-21T04:19:18.348Z,99096.22
2022-08-21T04:22:05.094Z,99091.94
2022-08-21T04:24:51.462Z,99097.13
2022-08-21T04:27:37.750Z,99076.47
2022-08-21T04:30:28.471Z,99071.28
2022-08-21T04:33:15.578Z,99085.09
2022-08-21T04:36:02.578Z,99111.00
2022-08-21T04:38:49.521Z,99115.31
2022-08-21T04:41:36.862Z,99108.41
2022-08-21T04:44:23.029Z,99135.13
2022-08-21T04:47:09.246Z,99111.81
2022-08-21T04:49:55.640Z,99120.38
2022-08-21T04:52:42.297Z,99107.41
2022-08-21T04:55:29.362Z,99103.94
2022-08-21T04:58:19.936Z,99100.47
2022-08-21T05:01:12.504Z,99143.50
2022-08-21T05:04:01.667Z,99102.06
2022-08-21T05:06:49.772Z,99105.47
2022-08-21T05:09:39.003Z,99113.09
2022-08-21T05:12:25.934Z,99123.03
2022-08-21T05:15:15.482Z,99143.66
2022-08-21T05:18:01.775Z,99114.03
2022-08-21T05:20:48.484Z,99130.94
2022-08-21T05:23:34.893Z,99088.91
2022-08-21T05:26:20.980Z,99064.69
2022-08-21T05:29:10.615Z,99144.00
2022-08-21T05:31:59.473Z,99150.91
2022-08-21T05:34:46.016Z,99145.00
2022-08-21T05:37:32.535Z,99159.13
2022-08-21T05:40:21.236Z,99162.00
2022-08-21T05:43:09.041Z,99153.63
2022-08-21T05:45:55.537Z,99134.81
2022-08-21T05:48:41.981Z,99135.81
2022-08-21T05:51:28.286Z,99147.13
2022-08-21T05:54:14.565Z,99128.94
2022-08-21T05:57:01.091Z,99145.25
2022-08-21T05:59:47.365Z,99139.97
2022-08-21T06:02:33.598Z,99144.28
2022-08-21T06:05:33.433Z,99145.84
2022-08-21T06:08:23.574Z,99100.22
2022-08-21T06:11:10.210Z,99129.00
2022-08-21T06:13:56.741Z,99162.44
2022-08-21T06:16:43.436Z,99163.78
2022-08-21T06:19:29.988Z,99146.31
2022-08-21T06:22:16.405Z,99109.09
2022-08-21T06:25:03.009Z,99103.69
2022-08-21T06:27:50.039Z,99166.97
2022-08-21T06:30:38.151Z,99135.63
2022-08-21T06:33:26.333Z,99155.72
2022-08-21T06:36:16.421Z,99161.44
2022-08-21T06:39:16.299Z,99135.88
2022-08-21T06:42:15.273Z,99133.56
2022-08-21T06:45:01.446Z,99134.91
2022-08-21T06:47:48.041Z,99146.34
2022-08-21T06:50:35.256Z,99144.34
2022-08-21T06:53:22.016Z,99101.78
2022-08-21T06:56:08.957Z,99116.84
2022-08-21T06:58:55.606Z,99105.75
2022-08-21T07:01:42.279Z,99141.47
2022-08-21T07:04:28.789Z,99113.56
2022-08-21T07:07:15.198Z,99145.09
2022-08-21T07:10:01.502Z,99116.47
2022-08-21T07:12:48.089Z,99120.56
2022-08-21T07:15:34.235Z,99111.91
2022-08-21T07:18:21.067Z,99135.31
2022-08-21T07:21:08.458Z,99137.75
2022-08-21T07:23:54.867Z,99116.38
2022-08-21T07:26:41.626Z,99141.28
2022-08-21T07:29:27.849Z,99097.66
2022-08-21T07:32:19.595Z,99118.56
2022-08-21T07:35:08.408Z,99113.63
2022-08-21T07:37:55.118Z,99134.41
2022-08-21T07:40:41.702Z,99111.47
2022-08-21T07:43:30.049Z,99126.63
2022-08-21T07:46:16.440Z,99129.19
2022-08-21T07:49:02.635Z,99131.75
2022-08-21T07:51:48.952Z,99117.66
2022-08-21T07:54:35.353Z,99103.66
2022-08-21T07:57:21.837Z,99101.47
2022-08-21T08:00:12.877Z,99125.69
2022-08-21T08:02:59.876Z,99095.28
2022-08-21T08:05:46.357Z,99068.91
2022-08-21T08:08:33.029Z,99099.38
2022-08-21T08:11:19.551Z,99082.00
2022-08-21T08:14:05.892Z,99119.94
2022-08-21T08:16:52.158Z,99094.38
2022-08-21T08:19:39.821Z,99085.31
2022-08-21T08:22:26.284Z,99081.34
2022-08-21T08:25:14.695Z,99091.63
2022-08-21T08:28:00.981Z,99077.19
2022-08-21T08:30:47.510Z,99100.03
2022-08-21T08:33:33.902Z,99095.38
2022-08-21T08:36:20.357Z,99096.53
2022-08-21T08:39:06.944Z,99049.81
2022-08-21T08:42:33.968Z,99058.31
2022-08-21T08:45:24.805Z,99074.41
2022-08-21T08:48:15.523Z,99060.44
2022-08-21T08:51:04.164Z,99048.69
2022-08-21T08:53:56.176Z,99054.75
2022-08-21T08:56:42.805Z,99069.72
2022-08-21T08:59:38.998Z,99077.53
2022-08-21T09:02:25.466Z,99078.66
2022-08-21T09:05:43.641Z,99064.22
2022-08-21T09:08:45.407Z,99068.03
2022-08-21T09:11:49.690Z,99041.34
2022-08-21T09:15:10.457Z,99066.47
2022-08-21T09:18:21.481Z,99058.00
2022-08-21T09:21:21.862Z,99054.69
2022-08-21T09:24:29.895Z,99037.63
2022-08-21T09:27:20.042Z,99056.81
2022-08-21T09:30:08.049Z,99057.34
2022-08-21T09:32:54.398Z,99041.22
2022-08-21T09:35:54.028Z,99051.06
2022-08-21T09:38:40.622Z,99030.50
2022-08-21T09:41:32.091Z,99050.50
2022-08-21T09:44:30.355Z,99042.97
2022-08-21T09:47:22.779Z,99041.59
2022-08-21T09:50:26.037Z,99032.31
2022-08-21T09:53:35.759Z,99009.28
2022-08-21T09:57:19.323Z,99013.09
2022-08-21T10:00:33.692Z,99035.69
2022-08-21T10:03:22.436Z,99034.41
2022-08-21T10:06:11.654Z,99007.28
2022-08-21T10:09:18.736Z,99031.19
2022-08-21T10:12:05.213Z,99019.44
2022-08-21T10:15:08.235Z,99014.66
2022-08-21T10:18:27.599Z,99012.19
2022-08-21T10:21:58.691Z,99013.84
2022-08-21T10:25:13.633Z,98986.13
2022-08-21T10:28:23.038Z,99003.09
2022-08-21T10:31:18.580Z,99006.59
2022-08-21T10:34:04.943Z,99001.34
2022-08-21T10:37:16.370Z,98970.41
2022-08-21T10:40:36.051Z,99003.38
2022-08-21T10:43:48.698Z,98995.94
2022-08-21T10:47:05.629Z,98964.25
2022-08-21T10:50:20.535Z,98993.31
2022-08-21T10:53:35.958Z,98988.03
2022-08-21T10:56:27.619Z,98955.22
2022-08-21T10:59:26.686Z,98982.16
2022-08-21T11:02:31.462Z,98971.06
2022-08-21T11:05:43.429Z,98978.66
2022-08-21T11:08:38.611Z,98946.06
2022-08-21T11:11:35.813Z,98964.44
2022-08-21T11:14:35.184Z,98959.63
2022-08-21T11:17:58.295Z,98972.66
2022-08-21T11:20:57.853Z,98952.50
2022-08-21T11:23:58.383Z,98968.00
2022-08-21T11:26:55.121Z,98957.78
2022-08-21T11:29:44.801Z,98928.59
2022-08-21T11:32:56.060Z,98957.38
2022-08-21T11:35:51.646Z,98959.34
2022-08-21T11:38:45.930Z,98964.59
2022-08-21T11:41:40.041Z,98949.00
2022-08-21T11:44:54.807Z,98920.03
2022-08-21T11:47:50.909Z,98917.19
2022-08-21T11:50:43.497Z,98946.41
2022-08-21T11:53:39.086Z,98915.47
2022-08-21T11:56:30.972Z,98911.47
2022-08-21T11:59:24.598Z,98934.28
2022-08-21T12:02:20.678Z,98933.63
2022-08-21T12:05:23.034Z,98928.81
2022-08-21T12:08:32.387Z,98932.09
2022-08-21T12:11:18.581Z,98931.97
2022-08-21T12:14:08.134Z,98913.03
2022-08-21T12:17:06.969Z,98916.00
2022-08-21T12:20:17.573Z,98913.19
2022-08-21T12:23:13.361Z,98912.56
2022-08-21T12:26:14.287Z,98881.75
2022-08-21T12:29:17.717Z,98903.03
2022-08-21T12:32:10.759Z,98903.28
2022-08-21T12:35:23.192Z,98878.91
2022-08-21T12:38:20.287Z,98892.25
2022-08-21T12:41:14.085Z,98884.84
2022-08-21T12:44:23.297Z,98885.06
2022-08-21T12:48:00.356Z,98891.44
2022-08-21T12:50:52.012Z,98883.84
2022-08-21T12:53:46.906Z,98899.34
2022-08-21T12:56:35.201Z,98832.22
2022-08-21T12:59:21.456Z,98868.25
2022-08-21T13:02:19.466Z,98893.28
2022-08-21T13:05:10.451Z,98866.06
2022-08-21T13:07:57.941Z,98872.78
2022-08-21T13:10:46.425Z,98872.06
2022-08-21T13:13:34.046Z,98873.13
2022-08-21T13:16:30.461Z,98875.91
2022-08-21T13:19:23.949Z,98851.81
2022-08-21T13:22:34.055Z,98894.44
2022-08-21T13:25:25.660Z,98892.16
2022-08-21T13:28:15.754Z,98866.19
2022-08-21T13:31:04.906Z,98884.97
2022-08-21T13:33:51.986Z,98881.09
2022-08-21T13:36:42.116Z,98887.88
2022-08-21T13:39:28.730Z,98873.19
2022-08-21T13:42:15.465Z,98852.38
2022-08-21T13:45:02.296Z,98882.84
2022-08-21T13:47:49.210Z,98823.31
2022-08-21T13:50:38.882Z,98831.59
2022-08-21T13:53:32.306Z,98862.34
2022-08-21T13:56:44.067Z,98853.81
2022-08-21T13:59:36.383Z,98860.53
2022-08-21T14:02:25.090Z,98834.53
2022-08-21T14:05:20.488Z,98854.00
2022-08-21T14:08:15.508Z,98848.19
2022-08-21T14:11:06.466Z,98828.31
2022-08-21T14:14:01.684Z,98850.13
2022-08-21T14:16:56.754Z,98840.09
2022-08-21T14:19:47.929Z,98856.53
2022-08-21T14:22:48.634Z,98825.66
2022-08-21T14:25:43.972Z,98843.47
2022-08-21T14:28:34.146Z,98846.84
2022-08-21T14:31:22.943Z,98851.31
2022-08-21T14:34:18.982Z,98810.47
2022-08-21T14:37:06.270Z,98816.94
2022-08-21T14:39:52.926Z,98796.06
2022-08-21T14:42:42.205Z,98800.78
2022-08-21T14:45:31.426Z,98836.78
2022-08-21T14:48:18.045Z,98816.38
2022-08-21T14:51:04.407Z,98807.81
2022-08-21T14:53:51.254Z,98808.47
2022-08-21T14:56:37.644Z,98825.59
2022-08-21T14:59:24.372Z,98832.16
2022-08-21T15:02:11.213Z,98832.09
2022-08-21T15:04:57.959Z,98824.72
2022-08-21T15:07:45.445Z,98824.72
2022-08-21T15:10:34.926Z,98804.31
2022-08-21T15:13:21.906Z,98809.78
2022-08-21T15:16:10.201Z,98808.72
2022-08-21T15:18:56.758Z,98789.56
2022-08-21T15:21:43.399Z,98788.81
2022-08-21T15:24:29.885Z,98808.16
2022-08-21T15:27:19.526Z,98800.19
2022-08-21T15:30:06.525Z,98782.50
2022-08-21T15:32:52.993Z,98763.09
2022-08-21T15:35:41.112Z,98766.25
2022-08-21T15:38:28.001Z,98790.56
2022-08-21T15:41:14.958Z,98781.63
2022-08-21T15:44:01.547Z,98761.81
2022-08-21T15:46:47.882Z,98786.00
2022-08-21T15:49:34.237Z,98780.34
2022-08-21T15:52:22.368Z,98782.75
2022-08-21T15:55:10.373Z,98757.91
2022-08-21T15:57:56.803Z,98774.78
2022-08-21T16:00:45.542Z,98763.97
2022-08-21T16:03:33.135Z,98786.94
2022-08-21T16:06:37.925Z,98777.31
2022-08-21T16:09:26.124Z,98765.53
2022-08-21T16:12:20.807Z,98768.75
2022-08-21T16:15:14.447Z,98757.94
2022-08-21T16:18:07.052Z,98760.72
2022-08-21T16:20:56.176Z,98760.84
2022-08-21T16:23:42.703Z,98745.25
2022-08-21T16:26:30.391Z,98784.25
2022-08-21T16:29:18.446Z,98750.56
2022-08-21T16:32:06.081Z,98730.41
2022-08-21T16:34:53.024Z,98738.47
2022-08-21T16:37:41.661Z,98737.19
2022-08-21T16:40:28.513Z,98741.47
2022-08-21T16:43:15.233Z,98770.91
2022-08-21T16:46:02.312Z,98757.31
2022-08-21T16:48:50.027Z,98735.28
2022-08-21T16:51:37.622Z,98749.94
2022-08-21T16:54:24.297Z,98749.50
2022-08-21T16:57:11.802Z,98751.63
2022-08-21T16:59:58.118Z,98746.94
2022-08-21T17:02:48.362Z,98768.81
2022-08-21T17:05:34.768Z,98756.50
2022-08-21T17:08:21.090Z,98724.47
2022-08-21T17:11:36.835Z,98743.31
2022-08-21T17:14:24.834Z,98739.75
2022-08-21T17:17:11.770Z,98756.00
2022-08-21T17:19:58.073Z,98739.75
2022-08-21T17:22:44.287Z,98687.03
2022-08-21T17:25:31.189Z,98750.66
2022-08-21T17:28:22.998Z,98763.81
2022-08-21T17:31:11.630Z,98754.59
2022-08-21T17:33:57.938Z,98735.28
2022-08-21T17:36:44.595Z,98744.19
2022-08-21T17:39:30.943Z,98768.38
2022-08-21T17:42:18.525Z,98747.03
2022-08-21T17:45:05.245Z,98746.47
2022-08-21T17:47:51.672Z,98750.06
2022-08-21T17:50:38.330Z,98693.59
2022-08-21T17:53:24.670Z,98708.13
2022-08-21T17:56:15.816Z,98758.59
2022-08-21T17:59:04.575Z,98765.06
2022-08-21T18:01:52.252Z,98766.06
2022-08-21T18:04:38.507Z,98741.78
2022-08-21T18:07:31.906Z,98742.31
2022-08-21T18:10:19.633Z,98743.56
2022-08-21T18:13:08.713Z,98738.56
2022-08-21T18:15:57.295Z,98746.72
2022-08-21T18:18:43.640Z,98747.66
2022-08-21T18:21:32.384Z,98751.84
2022-08-21T18:24:19.282Z,98775.19
2022-08-21T18:27:07.911Z,98755.16
2022-08-21T18:29:56.851Z,98756.91
2022-08-21T18:32:43.781Z,98742.13
2022-08-21T18:35:30.596Z,98787.84
2022-08-21T18:38:21.118Z,98754.50
2022-08-21T18:41:10.442Z,98789.16
2022-08-21T18:43:56.922Z,98758.88
2022-08-21T18:46:49.928Z,98771.94
2022-08-21T18:49:36.253Z,98772.06
2022-08-21T18:52:22.822Z,98749.00
2022-08-21T18:55:16.598Z,98796.88
2022-08-21T18:58:03.700Z,98801.28
2022-08-21T19:00:52.432Z,98783.72
2022-08-21T19:03:39.589Z,98785.66
2022-08-21T19:06:26.123Z,98782.81
2022-08-21T19:09:12.553Z,98784.75
2022-08-21T19:12:03.006Z,98775.41
2022-08-21T19:14:49.571Z,98779.53
2022-08-21T19:17:41.215Z,98808.66
2022-08-21T19:20:34.553Z,98818.16
2022-08-21T19:23:29.136Z,98767.53
2022-08-21T19:26:16.981Z,98772.50
2022-08-21T19:29:08.772Z,98826.34
2022-08-21T19:31:55.667Z,98797.00
2022-08-21T19:34:43.321Z,98803.22
2022-08-21T19:37:29.561Z,98818.84
2022-08-21T19:40:16.483Z,98812.84
2022-08-21T19:43:03.066Z,98805.16
2022-08-21T19:45:58.605Z,98797.72
2022-08-21T19:51:51.668Z,98802.00
2022-08-21T19:54:38.410Z,98808.09
2022-08-21T19:57:24.933Z,98812.09
2022-08-21T20:00:12.059Z,98809.03
2022-08-21T20:02:58.670Z,98804.88
2022-08-21T20:05:44.915Z,98819.63
2022-08-21T20:08:31.330Z,98842.34
2022-08-21T20:11:26.197Z,98816.47
2022-08-21T20:14:14.961Z,98837.19
2022-08-21T20:17:08.157Z,98815.03
2022-08-21T20:19:56.913Z,98816.13
2022-08-21T20:22:43.634Z,98810.63
2022-08-21T20:25:33.521Z,98837.94
2022-08-21T20:28:20.680Z,98797.88
2022-08-21T20:31:09.580Z,98828.53
2022-08-21T20:33:56.477Z,98804.28
2022-08-21T20:36:42.945Z,98806.81
2022-08-21T20:39:29.832Z,98802.88
2022-08-21T20:42:16.654Z,98814.13
2022-08-21T20:45:08.029Z,98824.00
2022-08-21T20:48:01.687Z,98829.13
2022-08-21T20:50:52.046Z,98799.63
2022-08-21T20:54:01.071Z,98804.28
2022-08-21T20:57:03.603Z,98841.25
2022-08-21T21:00:07.053Z,98814.94
2022-08-21T21:03:09.862Z,98838.13
2022-08-21T21:06:11.270Z,98805.94
2022-08-21T21:09:06.934Z,98831.81
2022-08-21T21:11:58.763Z,98794.00
2022-08-21T21:14:53.702Z,98830.31
2022-08-21T21:18:02.251Z,98816.00
2022-08-21T21:21:05.114Z,98793.97
2022-08-21T21:24:11.997Z,98823.47
2022-08-21T21:27:11.615Z,98845.22
2022-08-21T21:30:05.301Z,98842.63
2022-08-21T21:32:51.556Z,98845.31
2022-08-21T21:35:44.788Z,98844.53
2022-08-21T21:38:52.668Z,98848.13
2022-08-21T21:41:54.390Z,98845.06
2022-08-21T21:45:18.394Z,98851.03
2022-08-21T21:48:29.452Z,98849.56
2022-08-21T21:51:35.255Z,98837.59
2022-08-21T21:54:53.688Z,98845.72
2022-08-21T21:57:40.301Z,98845.91
2022-08-21T22:00:29.749Z,98847.91
2022-08-21T22:03:56.484Z,98851.31
2022-08-21T22:07:07.190Z,98834.09
2022-08-21T22:10:19.858Z,98813.00
2022-08-21T22:13:48.357Z,98850.81
2022-08-21T22:16:36.600Z,98847.63
2022-08-21T22:19:30.689Z,98821.88
2022-08-21T22:22:21.096Z,98848.38
2022-08-21T22:25:23.879Z,98847.69
2022-08-21T22:28:25.450Z,98830.88
2022-08-21T22:31:21.041Z,98858.13
2022-08-21T22:34:19.497Z,98850.41
2022-08-21T22:37:11.094Z,98854.06
2022-08-21T22:39:57.904Z,98851.53
2022-08-21T22:42:57.868Z,98798.47
2022-08-21T22:46:02.117Z,98838.97
2022-08-21T22:49:00.627Z,98826.22
2022-08-21T22:51:49.159Z,98847.03
2022-08-21T22:54:40.864Z,98834.38
2022-08-21T22:57:32.730Z,98864.59
2022-08-21T23:00:47.262Z,98856.97
2022-08-21T23:03:43.457Z,98860.44
2022-08-21T23:06:55.202Z,98866.59
2022-08-21T23:09:49.781Z,98822.81
2022-08-21T23:12:43.710Z,98828.91
2022-08-21T23:15:52.530Z,98857.28
2022-08-21T23:19:06.719Z,98852.22
2022-08-21T23:22:02.114Z,98850.56
2022-08-21T23:25:07.202Z,98854.16
2022-08-21T23:27:53.604Z,98867.06
2022-08-21T23:30:47.850Z,98862.69
2022-08-21T23:33:56.206Z,98856.47
2022-08-21T23:41:10.952Z,98814.00
2022-08-21T23:44:34.638Z,98846.44
2022-08-21T23:47:51.101Z,98848.19
2022-08-21T23:50:55.021Z,98851.69
2022-08-21T23:54:03.774Z,98844.84
2022-08-21T23:57:02.550Z,98853.63
